Flight Track Log - Related Links

Times and Time Zones

All times are in EDT time to prevent confusion due to time zone crossing. See the UAL6868 flight status page for this flight to view local times or setup timezone preferences in your user account.

Time Position Orientation Groundspeed Altitude Reporting Facility
EDT Latitude Longitude Course Direction KTS MPH feet Rate Location/Type
Fri 03:27:18 PM 29.9777 -95.3038 90° East 178 205 300  Level FlightAware ADS-B
Fri 03:27:21 PM 29.9775 -95.3007 94° East 181 208 400 2,000 Climbing FlightAware ADS-B
Fri 03:27:24 PM 29.9772 -95.2978 97° East 184 212 500 2,250 Climbing FlightAware ADS-B
Fri 03:27:29 PM 29.9760 -95.2930 106° East 187 215 700 2,500 Climbing FlightAware ADS-B
Fri 03:27:36 PM 29.9735 -95.2870 116° Southeast 194 223 1,000 3,000 Climbing FlightAware ADS-B
Fri 03:27:39 PM 29.9716 -95.2839 125° Southeast 197 227 1,200 3,429 Climbing FlightAware ADS-B
Fri 03:27:43 PM 29.9696 -95.2812 131° Southeast 202 232 1,400 3,000 Climbing FlightAware ADS-B
Fri 03:27:49 PM 29.9656 -95.2768 136° Southeast 204 235 1,700 2,727 Climbing FlightAware ADS-B
Fri 03:27:54 PM 29.9617 -95.2729 139° Southeast 211 243 1,900 2,000 Climbing FlightAware ADS-B
Fri 03:27:58 PM 29.9587 -95.2703 143° Southeast 217 250 2,000 1,714 Climbing FlightAware ADS-B
Fri 03:28:08 PM 29.9504 -95.2631 143° Southeast 232 267 2,300 2,400 Climbing FlightAware ADS-B
Fri 03:28:23 PM 29.9364 -95.2519 145° Southeast 247 284 3,000 2,516 Climbing FlightAware ADS-B
Fri 03:28:39 PM 29.9208 -95.2395 145° Southeast 252 290 3,600 1,235 Climbing FlightAware ADS-B
Fri 03:28:57 PM 29.9036 -95.2262 146° Southeast 262 302 3,700 182 Climbing FlightAware ADS-B
Fri 03:29:12 PM 29.8884 -95.2143 146° Southeast 259 298 3,700  Level FlightAware ADS-B
Fri 03:29:26 PM 29.8746 -95.2034 146° Southeast 272 313 3,700  Level FlightAware ADS-B
Fri 03:29:29 PM 29.8709 -95.2002 143° Southeast 277 319 3,700  Level FlightAware ADS-B
Fri 03:29:33 PM 29.8676 -95.1970 140° Southeast 281 323 3,700  Level FlightAware ADS-B
Fri 03:29:36 PM 29.8649 -95.1937 133° Southeast 282 325 3,700  Level FlightAware ADS-B
Fri 03:29:39 PM 29.8621 -95.1897 129° Southeast 283 326 3,700 857 Level FlightAware ADS-B
Fri 03:29:43 PM 29.8597 -95.1854 123° Southeast 284 327 3,800  Climbing FlightAware ADS-B
Fri 03:29:46 PM 29.8578 -95.1811 117° Southeast 282 325 3,700 -857 Descending FlightAware ADS-B
Fri 03:29:50 PM 29.8557 -95.1753 113° Southeast 279 321 3,700  Level FlightAware ADS-B
Fri 03:29:59 PM 29.8520 -95.1628 109° East 275 316 3,700  Level FlightAware ADS-B
Fri 03:30:09 PM 29.8481 -95.1485 107° East 274 315 3,700  Level FlightAware ADS-B
Fri 03:30:21 PM 29.8438 -95.1324 107° East 276 318 3,700  Level FlightAware ADS-B
Fri 03:30:36 PM 29.8378 -95.1108 108° East 284 327 3,700 231 Level FlightAware ADS-B
Fri 03:30:47 PM 29.8335 -95.0950 107° East 290 334 3,800 857 Climbing FlightAware ADS-B
Fri 03:30:50 PM 29.8320 -95.0904 111° Southeast 292 336 3,900 2,000 Climbing FlightAware ADS-B
Fri 03:30:53 PM 29.8300 -95.0856 116° Southeast 294 338 4,000 2,250 Climbing FlightAware ADS-B
Fri 03:30:58 PM 29.8270 -95.0797 120° Southeast 294 338 4,200 3,000 Climbing FlightAware ADS-B
Fri 03:31:01 PM 29.8245 -95.0759 127° Southeast 296 341 4,400 4,286 Climbing FlightAware ADS-B
Fri 03:31:05 PM 29.8206 -95.0706 130° Southeast 298 343 4,700 3,375 Climbing FlightAware ADS-B
Fri 03:31:17 PM 29.8095 -95.0570 133° Southeast 305 351 5,300 3,000 Climbing FlightAware ADS-B
Fri 03:31:21 PM 29.8052 -95.0522 136° Southeast 308 354 5,500 3,750 Climbing FlightAware ADS-B
Fri 03:31:25 PM 29.8009 -95.0478 138° Southeast 311 358 5,800 3,333 Climbing FlightAware ADS-B
Fri 03:31:30 PM 29.7950 -95.0425 142° Southeast 313 360 6,000 3,333 Climbing FlightAware ADS-B
Fri 03:31:34 PM 29.7902 -95.0387 146° Southeast 315 362 6,300 3,750 Climbing FlightAware ADS-B
Fri 03:31:38 PM 29.7857 -95.0356 149° Southeast 316 364 6,500 3,000 Climbing FlightAware ADS-B
Fri 03:31:42 PM 29.7806 -95.0324 151° Southeast 317 365 6,700 3,333 Climbing FlightAware ADS-B
Fri 03:31:47 PM 29.7731 -95.0284 155° Southeast 316 364 7,000 4,200 Climbing FlightAware ADS-B
Fri 03:31:52 PM 29.7663 -95.0255 160° South 315 362 7,400 4,235 Climbing FlightAware ADS-B
Fri 03:32:04 PM 29.7501 -95.0200 164° South 312 359 8,200 4,222 Climbing FlightAware ADS-B
Fri 03:32:19 PM 29.7289 -95.0131 164° South 306 352 9,300 3,857 Climbing FlightAware ADS-B
Fri 03:32:46 PM 29.6922 -95.0017 165° South 305 351 10,900 3,538 Climbing FlightAware ADS-B
Fri 03:32:58 PM 29.6757 -94.9967 165° South 308 354 11,600 3,290 Climbing FlightAware ADS-B
Fri 03:33:17 PM 29.6502 -94.9886 165° South 311 358 12,600 3,290 Climbing FlightAware ADS-B
Fri 03:33:29 PM 29.6330 -94.9831 164° South 313 360 13,300 3,000 Climbing FlightAware ADS-B
Fri 03:33:47 PM 29.6082 -94.9751 164° South 312 359 14,100 2,276 Climbing FlightAware ADS-B
Fri 03:33:58 PM 29.5931 -94.9703 165° South 311 358 14,400 1,636 Climbing FlightAware ADS-B
Fri 03:34:09 PM 29.5775 -94.9656 165° South 310 357 14,700 1,286 Climbing FlightAware ADS-B
Fri 03:34:12 PM 29.5736 -94.9646 167° South 310 357 14,700  Level FlightAware ADS-B
Fri 03:34:18 PM 29.5643 -94.9621 167° South 312 359 14,700  Level FlightAware ADS-B
Fri 03:34:23 PM 29.5582 -94.9601 164° South 315 362 14,700 429 Level FlightAware ADS-B
Fri 03:34:32 PM 29.5448 -94.9557 164° South 313 360 14,800  Climbing FlightAware ADS-B
Fri 03:34:53 PM 29.5154 -94.9462 164° South 315 362 14,700 -130 Descending FlightAware ADS-B
Fri 03:35:18 PM 29.4808 -94.9335 162° South 314 361 14,700 133 Level FlightAware ADS-B
Fri 03:35:38 PM 29.4537 -94.9238 163° South 316 364 14,800  Climbing FlightAware ADS-B
Fri 03:36:14 PM 29.4029 -94.9065 163° South 312 359 14,700  Descending FlightAware ADS-B
Fri 03:36:44 PM 29.3632 -94.8927 163° South 282 325 14,800  Climbing FlightAware ADS-B
Fri 03:37:03 PM 29.3403 -94.8851 164° South 266 306 14,700 -133 Descending FlightAware ADS-B
Fri 03:37:29 PM 29.3107 -94.8766 166° South 250 288 14,700  Level FlightAware ADS-B
Fri 03:37:42 PM 29.2967 -94.8718 163° South 243 280 14,700 -182 Level FlightAware ADS-B
Fri 03:38:02 PM 29.2762 -94.8636 161° South 232 267 14,600 -120 Descending FlightAware ADS-B
Fri 03:38:32 PM 29.2478 -94.8504 158° South 216 249 14,600  Level FlightAware ADS-B
Fri 03:38:37 PM 29.2430 -94.8478 155° Southeast 223 257 14,600  Level FlightAware ADS-B
Fri 03:38:43 PM 29.2376 -94.8445 152° Southeast 223 257 14,600 333 Level FlightAware ADS-B
Fri 03:39:13 PM 29.2120 -94.8280 151° Southeast 196 226 14,800 130 Climbing FlightAware ADS-B
Fri 03:39:29 PM 29.1998 -94.8199 150° Southeast 184 212 14,700 -182 Descending FlightAware ADS-B
Fri 03:39:46 PM 29.1885 -94.8124 150° Southeast 166 191 14,700 -261 Level FlightAware ADS-B
Fri 03:39:52 PM 29.1839 -94.8096 152° Southeast 165 190 14,600  Descending FlightAware ADS-B
Fri 03:39:58 PM 29.1799 -94.8074 154° Southeast 164 189 14,700 364 Climbing FlightAware ADS-B
Fri 03:40:25 PM 29.1630 -94.7958 149° Southeast 153 176 14,800 -146 Climbing FlightAware ADS-B
Fri 03:40:39 PM 29.1551 -94.7900 147° Southeast 139 160 14,600 -909 Descending FlightAware ADS-B
Fri 03:40:58 PM 29.1437 -94.7829 151° Southeast 152 175 14,300 136 Descending FlightAware ADS-B
Fri 03:41:23 PM 29.1289 -94.7722 148° Southeast 147 169 14,700 938 Climbing FlightAware ADS-B
Fri 03:41:30 PM 29.1252 -94.7696 148° Southeast 151 174 14,800 364 Climbing FlightAware ADS-B
Fri 03:41:56 PM 29.1075 -94.7585 151° Southeast 181 208 14,900  Climbing FlightAware ADS-B
Fri 03:42:26 PM 29.0840 -94.7422 149° Southeast 209 241 14,800 -200 Descending FlightAware ADS-B
Fri 03:42:56 PM 29.0586 -94.7242 148° Southeast 222 255 14,700  Descending FlightAware ADS-B
Fri 03:43:15 PM 29.0417 -94.7126 149° Southeast 214 246 14,800 118 Climbing FlightAware ADS-B
Fri 03:43:47 PM 29.0170 -94.6956 149° Southeast 181 208 14,800  Level FlightAware ADS-B
Fri 03:44:03 PM 29.0053 -94.6880 150° Southeast 174 200 14,800  Level FlightAware ADS-B
Fri 03:44:20 PM 28.9934 -94.6810 153° Southeast 174 200 14,800  Level FlightAware ADS-B
Fri 03:44:26 PM 28.9895 -94.6785 151° Southeast 179 206 14,800 -300 Level FlightAware ADS-B
Fri 03:44:40 PM 28.9791 -94.6710 148° Southeast 181 208 14,700 -300 Descending FlightAware ADS-B
Fri 03:44:46 PM 28.9756 -94.6682 145° Southeast 184 212 14,700 -500 Level FlightAware ADS-B
Fri 03:44:52 PM 28.9713 -94.6642 141° Southeast 187 215 14,600 -273 Descending FlightAware ADS-B
Fri 03:45:08 PM 28.9610 -94.6548 141° Southeast 180 207 14,600 240 Level FlightAware ADS-B
Fri 03:45:17 PM 28.9545 -94.6499 147° Southeast 174 200 14,700 600 Climbing FlightAware ADS-B
Fri 03:45:48 PM 28.9327 -94.6380 154° Southeast 168 193 15,000 474 Climbing FlightAware ADS-B
Fri 03:45:55 PM 28.9281 -94.6355 155° Southeast 168 193 15,000 -214 Level FlightAware ADS-B
Fri 03:46:16 PM 28.9131 -94.6263 152° Southeast 176 203 14,900 -293 Descending FlightAware ADS-B
Fri 03:46:36 PM 28.8991 -94.6163 148° Southeast 174 200 14,800 -125 Descending FlightAware ADS-B
Fri 03:47:04 PM 28.8802 -94.6029 148° Southeast 173 199 14,800  Level FlightAware ADS-B
Fri 03:47:39 PM 28.8556 -94.5873 151° Southeast 172 198 14,800  Level FlightAware ADS-B
Fri 03:47:58 PM 28.8428 -94.5790 150° Southeast 174 200 14,800  Level FlightAware ADS-B
Fri 03:48:11 PM 28.8335 -94.5726 149° Southeast 172 198 14,800  Level FlightAware ADS-B
Fri 03:48:43 PM 28.8072 -94.5556 150° Southeast 235 270 14,800  Level FlightAware ADS-B
Fri 03:49:16 PM 28.7765 -94.5337 148° Southeast 224 258 14,800  Level FlightAware ADS-B
Fri 03:49:30 PM 28.7646 -94.5255 149° Southeast 220 253 14,800  Level FlightAware ADS-B
Fri 03:50:00 PM 28.7342 -94.5057 150° Southeast 267 307 14,800  Level FlightAware ADS-B
Fri 03:50:32 PM 28.6974 -94.4809 149° Southeast 290 334 14,800  Level FlightAware ADS-B
Fri 03:51:15 PM 28.6512 -94.4497 149° Southeast 273 314 14,800  Level FlightAware ADS-B
Fri 03:51:45 PM 28.6178 -94.4274 150° Southeast 278 320 14,800  Level FlightAware ADS-B
Fri 03:52:17 PM 28.5830 -94.4041 150° Southeast 266 306 14,800  Level FlightAware ADS-B
Fri 03:52:47 PM 28.5498 -94.3820 150° Southeast 274 315 14,800 -98 Level FlightAware ADS-B
Fri 03:53:18 PM 28.5158 -94.3592 149° Southeast 276 318 14,700  Descending FlightAware ADS-B
Fri 03:53:49 PM 28.4812 -94.3363 150° Southeast 279 321 14,800 98 Climbing FlightAware ADS-B
Fri 03:54:19 PM 28.4477 -94.3136 149° Southeast 278 320 14,800  Level FlightAware ADS-B
Fri 03:54:50 PM 28.4151 -94.2917 149° Southeast 259 298 14,800  Level FlightAware ADS-B
Fri 03:55:20 PM 28.3850 -94.2716 150° Southeast 234 269 14,800  Level FlightAware ADS-B
Fri 03:55:56 PM 28.3539 -94.2509 150° Southeast 204 235 14,800  Level FlightAware ADS-B
Fri 03:56:33 PM 28.3241 -94.2314 150° Southeast 197 227 14,800  Level FlightAware ADS-B
Fri 03:57:09 PM 28.2956 -94.2124 150° Southeast 199 229 14,800 -87 Level FlightAware ADS-B
Fri 03:57:42 PM 28.2697 -94.1951 150° Southeast 200 230 14,700  Descending FlightAware ADS-B
Fri 03:58:45 PM 28.2096 -94.1554 150° Southeast 277 319 14,800 58 Climbing FlightAware ADS-B
Fri 03:59:25 PM 28.1735 -94.1122 133° Southeast 283 326 14,800  Level FlightAware ADS-B
Fri 03:59:39 PM 28.1716 -94.0900 96° East 322 371 14,800  Level FlightAware ADS-B
Fri 04:00:10 PM 28.1758 -94.0376 85° East 326 375 14,800 -79 Level FlightAware ADS-B
Fri 04:00:55 PM 28.1859 -93.9527 82° East 324 373 14,700 72 Descending FlightAware ADS-B
Fri 04:01:33 PM 28.1902 -93.8887 86° East 321 369 14,900  Climbing FlightAware ADS-B
Fri 04:02:16 PM 28.1962 -93.8174 85° East 320 368 14,700 -105 Descending FlightAware ADS-B
Fri 04:02:30 PM 28.1972 -93.7932 87° East 320 368 14,800  Climbing FlightAware ADS-B
Fri 04:04:37 PM 28.2098 -93.5812 86° East 321 369 14,700 35 Descending FlightAware ADS-B
Fri 04:05:23 PM 28.2108 -93.5333 86° East 319 367 14,900 222 Climbing Houston Center
Fri 04:06:25 PM 28.2231 -93.4103 84° East 322 371 15,100  Climbing Houston Center
Fri 04:07:28 PM 28.2292 -93.2961 86° East 342 394 14,900 -96 Descending Houston Center
Fri 04:08:30 PM 28.2303 -93.1825 89° East 354 407 14,900 48 Level Houston Center
Fri 04:09:32 PM 28.2328 -93.0697 89° East 358 412 15,000  Climbing Houston Center
Fri 04:10:34 PM 28.2453 -92.9642 82° East 349 402 14,900 -48 Descending Houston Center
Fri 04:11:36 PM 28.2517 -92.8569 86° East 344 396 14,900  Level Houston Center
Fri 04:12:38 PM 28.2117 -92.7544 114° Southeast 333 383 14,900  Level Houston Center
Fri 04:13:40 PM 28.1439 -92.7761 196° South 292 336 14,900  Level Houston Center
Fri 04:14:42 PM 28.1261 -92.8489 255° West 265 305 14,900 694 Level Houston Center
Fri 04:20:52 PM 28.0397 -93.4720 255° West 364 419 19,900 1,261 Climbing FlightAware ADS-B
Fri 04:21:55 PM 28.0267 -93.5864 263° West 325 374 24,000 3,047 Climbing FlightAware ADS-B
Fri 04:23:00 PM 28.0331 -93.6968 274° West 327 376 26,400 2,061 Climbing FlightAware ADS-B
Fri 04:23:34 PM 28.0407 -93.7572 278° West 347 399 27,400 2,203 Climbing FlightAware ADS-B
Fri 04:24:19 PM 28.0470 -93.8382 275° West 340 391 29,300 2,289 Climbing FlightAware ADS-B
Fri 04:24:50 PM 28.0492 -93.8923 273° West 338 389 30,300 1,238 Climbing FlightAware ADS-B
Fri 04:25:22 PM 28.0523 -93.9512 273° West 357 411 30,600 369 Climbing FlightAware ADS-B
Fri 04:25:55 PM 28.0564 -94.0137 274° West 380 437 30,700 295 Climbing FlightAware ADS-B
Fri 04:26:23 PM 28.0582 -94.0714 272° West 391 450 30,900 305 Climbing FlightAware ADS-B
Fri 04:26:54 PM 28.0561 -94.1361 268° West 399 459 31,000 295 Climbing FlightAware ADS-B
Fri 04:27:24 PM 28.0536 -94.1990 267° West 403 464 31,200 197 Climbing FlightAware ADS-B
Fri 04:27:55 PM 28.0516 -94.2632 268° West 405 466 31,200  Level FlightAware ADS-B
Fri 04:28:26 PM 28.0498 -94.3285 268° West 406 467 31,200 393 Level FlightAware ADS-B
Fri 04:28:56 PM 28.0483 -94.3922 268° West 399 459 31,600 1,350 Climbing FlightAware ADS-B
Fri 04:29:06 PM 28.0496 -94.4140 274° West 393 452 32,100 2,667 Climbing FlightAware ADS-B
Fri 04:29:14 PM 28.0526 -94.4301 282° West 394 453 32,400 2,250 Climbing FlightAware ADS-B
Fri 04:29:22 PM 28.0576 -94.4452 291° West 399 459 32,700 1,500 Climbing FlightAware ADS-B
Fri 04:29:26 PM 28.0611 -94.4526 298° West 403 464 32,700 667 Level FlightAware ADS-B
Fri 04:29:31 PM 28.0660 -94.4612 303° West 407 468 32,800 1,091 Climbing FlightAware ADS-B
Fri 04:29:37 PM 28.0734 -94.4715 309° West 415 478 32,900 545 Climbing FlightAware ADS-B
Fri 04:29:42 PM 28.0795 -94.4782 316° Northwest 420 483 32,900 375 Level FlightAware ADS-B
Fri 04:29:53 PM 28.0980 -94.4930 325° Northwest 439 505 33,000 333 Climbing FlightAware ADS-B
Fri 04:30:00 PM 28.1115 -94.5000 335° Northwest 451 519 33,000  Level FlightAware ADS-B
Fri 04:30:06 PM 28.1245 -94.5047 342° North 466 536 33,000  Level FlightAware ADS-B
Fri 04:30:22 PM 28.1577 -94.5089 354° North 494 568 33,000  Level FlightAware ADS-B
Fri 04:30:36 PM 28.1901 -94.5037 North 515 593 33,000  Level FlightAware ADS-B
Fri 04:30:43 PM 28.2074 -94.4971 19° North 522 601 33,000  Level FlightAware ADS-B
Fri 04:30:47 PM 28.2168 -94.4924 24° Northeast 528 608 33,000  Level FlightAware ADS-B
Fri 04:30:58 PM 28.2396 -94.4767 31° Northeast 540 621 33,000  Level FlightAware ADS-B
Fri 04:31:07 PM 28.2568 -94.4601 40° Northeast 547 629 33,000  Level FlightAware ADS-B
Fri 04:31:13 PM 28.2668 -94.4479 47° Northeast 552 635 33,000  Level FlightAware ADS-B
Fri 04:31:20 PM 28.2780 -94.4313 53° Northeast 555 639 33,000  Level FlightAware ADS-B
Fri 04:31:27 PM 28.2880 -94.4129 58° Northeast 558 642 33,000  Level FlightAware ADS-B
Fri 04:31:39 PM 28.3008 -94.3822 65° Northeast 560 644 33,000  Level FlightAware ADS-B
Fri 04:31:46 PM 28.3063 -94.3639 71° East 559 643 33,000  Level FlightAware ADS-B
Fri 04:31:56 PM 28.3131 -94.3339 76° East 557 641 33,000  Level FlightAware ADS-B
Fri 04:32:07 PM 28.3175 -94.3023 81° East 554 638 33,000  Level FlightAware ADS-B
Fri 04:32:33 PM 28.3168 -94.2290 91° East 543 625 33,000  Level FlightAware ADS-B
Fri 04:33:25 PM 28.2904 -94.0845 102° East 543 625 33,000 71 Level FlightAware ADS-B
Fri 04:33:57 PM 28.2736 -93.9989 103° East 537 618 33,100 537 Climbing FlightAware ADS-B
Fri 04:34:32 PM 28.2541 -93.9018 103° East 537 618 33,600 1,075 Climbing FlightAware ADS-B
Fri 04:35:04 PM 28.2366 -93.8155 103° East 535 616 34,300 1,183 Climbing FlightAware ADS-B
Fri 04:35:43 PM 28.2144 -93.7072 103° East 536 617 35,000 646 Climbing FlightAware ADS-B
Fri 04:36:09 PM 28.2024 -93.6374 101° East 545 627 35,000  Level FlightAware ADS-B
Fri 04:36:29 PM 28.2020 -93.5778 90° East 550 633 35,000  Level FlightAware ADS-B
Fri 04:37:00 PM 28.2125 -93.4899 82° East 551 634 35,000  Level FlightAware ADS-B
Fri 04:37:39 PM 28.2217 -93.3795 85° East 548 631 35,000  Level FlightAware ADS-B
Fri 04:38:14 PM 28.2265 -93.2805 87° East 545 627 35,000  Level FlightAware ADS-B
Fri 04:38:31 PM 28.2267 -93.2583 87° East 549 632 35,000  Level Houston Center
Fri 04:39:33 PM 28.2344 -93.0886 87° East 543 625 35,000  Level Houston Center
Fri 04:40:35 PM 28.2436 -92.9200 86° East 540 621 35,000  Level Houston Center
Fri 04:41:37 PM 28.2844 -92.7300 76° East 537 618 35,000  Level Houston Center
Fri 04:42:39 PM 28.4039 -92.6872 17° North 483 556 35,000  Level Houston Center
Fri 04:43:42 PM 28.4906 -92.7492 328° Northwest 389 448 35,000  Level Houston Center
Fri 04:44:44 PM 28.5119 -92.8469 284° West 331 381 35,000  Level Houston Center
Fri 04:45:46 PM 28.5125 -92.9458 270° West 313 360 35,000  Level Houston Center
Fri 04:46:48 PM 28.5072 -93.0625 267° West 308 354 35,000  Level Houston Center
Fri 04:51:59 PM 28.4804 -93.6119 267° West 304 350 35,000  Level FlightAware ADS-B
Fri 04:52:29 PM 28.4779 -93.6599 267° West 300 345 35,000  Level FlightAware ADS-B
Fri 04:53:01 PM 28.4755 -93.7089 267° West 299 344 35,000  Level FlightAware ADS-B
Fri 04:53:50 PM 28.4716 -93.7870 267° West 301 346 35,000  Level FlightAware ADS-B
Fri 04:54:27 PM 28.4686 -93.8453 267° West 304 350 35,000  Level FlightAware ADS-B
Fri 04:54:59 PM 28.4659 -93.8962 267° West 305 351 35,000  Level FlightAware ADS-B
Fri 04:55:29 PM 28.4635 -93.9441 267° West 306 352 35,000  Level FlightAware ADS-B
Fri 04:56:02 PM 28.4606 -93.9977 266° West 308 354 35,000  Level FlightAware ADS-B
Fri 04:56:33 PM 28.4580 -94.0477 267° West 309 356 35,000  Level FlightAware ADS-B
Fri 04:56:55 PM 28.4551 -94.0828 265° West 308 354 35,000  Level FlightAware ADS-B
Fri 04:57:00 PM 28.4530 -94.0905 253° West 307 353 35,000  Level FlightAware ADS-B
Fri 04:57:28 PM 28.4371 -94.1306 246° West 310 357 35,000  Level FlightAware ADS-B
Fri 04:57:39 PM 28.4281 -94.1470 238° Southwest 313 360 35,000  Level FlightAware ADS-B
Fri 04:57:49 PM 28.4196 -94.1592 232° Southwest 317 365 35,000  Level FlightAware ADS-B
Fri 04:58:08 PM 28.3980 -94.1820 223° Southwest 327 376 35,000  Level FlightAware ADS-B
Fri 04:58:31 PM 28.3671 -94.2011 209° Southwest 344 396 35,000  Level FlightAware ADS-B
Fri 04:58:36 PM 28.3600 -94.2038 199° South 352 405 35,000  Level FlightAware ADS-B
Fri 04:58:47 PM 28.3409 -94.2089 193° South 365 420 35,000  Level FlightAware ADS-B
Fri 04:58:59 PM 28.3205 -94.2107 184° South 380 437 35,000  Level FlightAware ADS-B
Fri 04:59:07 PM 28.3069 -94.2099 177° South 394 453 35,000  Level FlightAware ADS-B
Fri 04:59:38 PM 28.2498 -94.1871 161° South 400 460 35,000  Level FlightAware ADS-B
Fri 05:00:00 PM 28.2151 -94.1507 137° Southeast 482 555 35,000  Level FlightAware ADS-B
Fri 05:00:10 PM 28.2030 -94.1288 122° Southeast 501 577 35,000  Level FlightAware ADS-B
Fri 05:00:23 PM 28.1925 -94.0973 111° Southeast 519 597 35,000  Level FlightAware ADS-B
Fri 05:00:34 PM 28.1885 -94.0681 99° East 529 609 35,000  Level FlightAware ADS-B
Fri 05:01:09 PM 28.1924 -93.9706 87° East 534 615 35,000  Level FlightAware ADS-B
Fri 05:02:04 PM 28.2014 -93.8162 86° East 536 617 35,000  Level FlightAware ADS-B
Fri 05:02:44 PM 28.2076 -93.7036 86° East 537 618 35,000  Level FlightAware ADS-B
Fri 05:03:15 PM 28.2122 -93.6170 87° East 551 634 35,000  Level FlightAware ADS-B
Fri 05:03:57 PM 28.2185 -93.4921 87° East 562 647 35,000  Level FlightAware ADS-B
Fri 05:04:33 PM 28.2238 -93.3838 87° East 578 665 35,000  Level FlightAware ADS-B
Fri 05:05:03 PM 28.2281 -93.2932 87° East 578 665 35,000  Level FlightAware ADS-B
Fri 05:05:26 PM 28.2292 -93.2372 87° East 577 664 35,000  Level Houston Center
Fri 05:06:28 PM 28.2386 -93.0575 87° East 576 663 35,000  Level Houston Center
Fri 05:07:30 PM 28.2461 -92.8794 87° East 572 658 35,000  Level Houston Center
Fri 05:08:32 PM 28.2953 -92.7139 71° East 583 671 35,000  Level Houston Center
Fri 05:09:35 PM 28.4267 -92.6919 North 515 593 35,000  Level Houston Center
Fri 05:10:37 PM 28.5092 -92.8053 310° West 405 466 35,000 -97 Level Houston Center
Fri 05:11:39 PM 28.5133 -92.9186 272° West 363 418 34,800 -484 Descending Houston Center
Fri 05:12:41 PM 28.5092 -93.0311 268° West 357 411 34,000 -1,174 Descending Houston Center
Fri 05:18:33 PM 28.4778 -93.6622 268° West 323 372 26,700 -1,304 Descending FlightAware ADS-B
Fri 05:19:03 PM 28.4754 -93.7132 267° West 316 364 25,700 -2,031 Descending FlightAware ADS-B
Fri 05:19:38 PM 28.4725 -93.7698 267° West 314 361 24,500 -2,122 Descending FlightAware ADS-B
Fri 05:20:25 PM 28.4686 -93.8507 267° West 334 384 22,800 -1,500 Descending FlightAware ADS-B
Fri 05:21:02 PM 28.4649 -93.9153 266° West 318 366 22,400 -794 Descending FlightAware ADS-B
Fri 05:21:33 PM 28.4618 -93.9645 266° West 308 354 21,900 -1,263 Descending FlightAware ADS-B
Fri 05:21:59 PM 28.4594 -94.0078 266° West 311 358 21,200 -885 Descending FlightAware ADS-B
Fri 05:22:34 PM 28.4568 -94.0627 267° West 301 346 21,000 -214 Descending FlightAware ADS-B
Fri 05:22:55 PM 28.4516 -94.0942 259° West 283 326 21,000  Level FlightAware ADS-B
Fri 05:23:23 PM 28.4365 -94.1311 245° Southwest 270 311 21,000  Level FlightAware ADS-B
Fri 05:23:32 PM 28.4308 -94.1420 239° Southwest 265 305 21,000  Level FlightAware ADS-B
Fri 05:23:46 PM 28.4209 -94.1574 234° Southwest 262 302 21,000  Level FlightAware ADS-B
Fri 05:24:00 PM 28.4093 -94.1710 226° Southwest 262 302 21,000  Level FlightAware ADS-B
Fri 05:24:12 PM 28.3977 -94.1816 219° Southwest 264 304 21,000  Level FlightAware ADS-B
Fri 05:24:20 PM 28.3894 -94.1880 214° Southwest 266 306 21,000  Level FlightAware ADS-B
Fri 05:24:44 PM 28.3619 -94.2026 205° Southwest 278 320 21,000  Level FlightAware ADS-B
Fri 05:25:05 PM 28.3365 -94.2089 192° South 288 331 21,000  Level FlightAware ADS-B
Fri 05:25:09 PM 28.3303 -94.2095 185° South 291 335 21,000  Level FlightAware ADS-B
Fri 05:25:18 PM 28.3180 -94.2095 180° South 299 344 21,000  Level FlightAware ADS-B
Fri 05:25:33 PM 28.2965 -94.2060 172° South 309 356 21,000  Level FlightAware ADS-B
Fri 05:26:08 PM 28.2487 -94.1821 156° South 337 388 21,000 118 Level FlightAware ADS-B
Fri 05:26:24 PM 28.2297 -94.1628 138° Southeast 355 409 21,100 194 Climbing FlightAware ADS-B
Fri 05:26:39 PM 28.2174 -94.1392 121° Southeast 369 425 21,100  Level FlightAware ADS-B
Fri 05:26:44 PM 28.2143 -94.1299 111° Southeast 378 435 21,100 -222 Level FlightAware ADS-B
Fri 05:27:06 PM 28.2006 -94.0885 111° Southeast 385 443 21,000 -207 Descending FlightAware ADS-B
Fri 05:27:13 PM 28.1982 -94.0750 101° East 388 447 21,000  Level FlightAware ADS-B
Fri 05:27:19 PM 28.1971 -94.0628 96° East 391 450 21,000  Level FlightAware ADS-B
Fri 05:27:51 PM 28.1958 -93.9963 91° East 397 457 21,000  Level FlightAware ADS-B
Fri 05:28:33 PM 28.1985 -93.9076 88° East 402 463 21,000  Level FlightAware ADS-B
Fri 05:29:04 PM 28.2054 -93.8441 83° East 399 459 21,000  Level FlightAware ADS-B
Fri 05:29:35 PM 28.2061 -93.7806 89° East 392 451 21,000  Level FlightAware ADS-B
Fri 05:30:15 PM 28.2079 -93.6981 89° East 392 451 21,000  Level FlightAware ADS-B
Fri 05:30:48 PM 28.2107 -93.6305 87° East 393 452 21,000  Level FlightAware ADS-B
Fri 05:31:19 PM 28.2153 -93.5670 85° East 395 455 21,000  Level FlightAware ADS-B
Fri 05:31:46 PM 28.2330 -93.5160 68° East 395 455 21,000  Level FlightAware ADS-B
Fri 05:32:17 PM 28.2729 -93.4722 44° Northeast 394 453 21,000  Level FlightAware ADS-B
Fri 05:32:24 PM 28.2850 -93.4651 27° Northeast 377 434 21,000  Level FlightAware ADS-B
Fri 05:32:53 PM 28.3311 -93.4531 13° North 363 418 21,000  Level FlightAware ADS-B
Fri 05:33:01 PM 28.3430 -93.4536 358° North 326 375 21,000 -316 Level FlightAware ADS-B
Fri 05:33:12 PM 28.3580 -93.4572 348° North 312 359 20,900 -316 Descending FlightAware ADS-B
Fri 05:33:20 PM 28.3687 -93.4621 338° Northwest 299 344 20,900 286 Level FlightAware ADS-B
Fri 05:33:33 PM 28.3843 -93.4734 327° Northwest 289 333 21,000 353 Climbing FlightAware ADS-B
Fri 05:33:37 PM 28.3888 -93.4763 330° Northwest 293 337 21,000 -900 Level FlightAware ADS-B
Fri 05:33:53 PM 28.4073 -93.4874 332° Northwest 296 341 20,700 -1,500 Descending FlightAware ADS-B
Fri 05:34:13 PM 28.4308 -93.5051 326° Northwest 313 360 20,100 -1,077 Descending FlightAware ADS-B
Fri 05:34:32 PM 28.4524 -93.5269 318° Northwest 341 392 20,000 -80 Descending FlightAware ADS-B
Fri 05:35:28 PM 28.5142 -93.5933 318° Northwest 356 410 20,000  Level Houston Center
Fri 05:36:30 PM 28.5886 -93.6783 315° West 375 432 20,000  Level Houston Center
Fri 05:37:32 PM 28.6617 -93.7636 314° West 377 434 20,000  Level Houston Center
Fri 05:38:34 PM 28.7333 -93.8503 313° West 377 434 20,000  Level Houston Center
Fri 05:39:36 PM 28.8208 -93.9547 314° West 378 435 20,000  Level Houston Center
Fri 05:40:38 PM 28.8956 -94.0417 314° West 382 440 20,000 -1,073 Level Houston Center
Fri 05:46:02 PM 29.2190 -94.4280 314° West 283 326 13,100 -1,301 Descending FlightAware ADS-B
Fri 05:46:47 PM 29.2590 -94.4760 314° West 273 314 12,000 -1,300 Descending FlightAware ADS-B
Fri 05:47:02 PM 29.2690 -94.4960 300° West 262 302 11,800 -400 Descending FlightAware ADS-B
Fri 05:47:17 PM 29.2720 -94.5140 281° West 260 299 11,800 -360 Level FlightAware ADS-B
Fri 05:47:52 PM 29.2740 -94.5640 273° West 258 297 11,500 -1,125 Descending FlightAware ADS-B
Fri 05:48:37 PM 29.2760 -94.6240 272° West 256 295 10,300 -1,600 Descending FlightAware ADS-B
Fri 05:49:07 PM 29.2780 -94.6650 273° West 256 295 9,500 -1,560 Descending FlightAware ADS-B
Fri 05:49:27 PM 29.2780 -94.6880 270° West 255 293 9,000 -2,045 Descending FlightAware ADS-B
Fri 05:49:51 PM 29.2794 -94.7278 272° West 263 303 8,000 -2,154 Descending FlightAware ADS-B
Fri 05:50:06 PM 29.2799 -94.7487 272° West 264 304 7,600 -1,600 Descending FlightAware ADS-B
Fri 05:50:21 PM 29.2801 -94.7697 271° West 263 303 7,200 -1,448 Descending FlightAware ADS-B
Fri 05:50:35 PM 29.2801 -94.7888 270° West 260 299 6,900 -1,263 Descending FlightAware ADS-B
Fri 05:50:40 PM 29.2802 -94.7953 271° West 258 297 6,800 -1,636 Descending FlightAware ADS-B
Fri 05:50:46 PM 29.2809 -94.8040 275° West 257 296 6,600 -1,459 Descending FlightAware ADS-B
Fri 05:51:17 PM 29.2860 -94.8400 279° West 255 293 5,900 -1,543 Descending FlightAware ADS-B
Fri 05:51:21 PM 29.2870 -94.8504 276° West 255 293 5,700 -1,714 Descending FlightAware ADS-B
Fri 05:51:38 PM 29.2901 -94.8730 279° West 255 293 5,300 -1,688 Descending FlightAware ADS-B
Fri 05:51:53 PM 29.2926 -94.8928 278° West 256 295 4,800 -1,862 Descending FlightAware ADS-B
Fri 05:52:07 PM 29.2953 -94.9116 279° West 259 298 4,400 -1,448 Descending FlightAware ADS-B
Fri 05:52:22 PM 29.2984 -94.9319 280° West 255 293 4,100 -1,154 Descending FlightAware ADS-B
Fri 05:52:33 PM 29.3006 -94.9463 280° West 247 284 3,900 -1,111 Descending FlightAware ADS-B
Fri 05:52:49 PM 29.3037 -94.9657 280° West 232 267 3,600 -774 Descending FlightAware ADS-B
Fri 05:53:04 PM 29.3064 -94.9832 280° West 217 250 3,500 -400 Descending FlightAware ADS-B
Fri 05:53:19 PM 29.3089 -94.9999 280° West 210 242 3,400 -800 Descending FlightAware ADS-B
Fri 05:53:34 PM 29.3113 -95.0163 280° West 206 237 3,100 -1,200 Descending FlightAware ADS-B
Fri 05:53:39 PM 29.3121 -95.0218 279° West 204 235 3,000 -1,200 Descending FlightAware ADS-B
Fri 05:53:49 PM 29.3137 -95.0320 280° West 203 234 2,800 -600 Descending FlightAware ADS-B
Fri 05:53:59 PM 29.3152 -95.0429 279° West 214 246 2,800  Level FlightAware ADS-B
Fri 05:54:11 PM 29.3172 -95.0569 279° West 214 246 2,800  Level FlightAware ADS-B
Fri 05:54:16 PM 29.3182 -95.0624 282° West 213 245 2,800  Level FlightAware ADS-B
Fri 05:54:35 PM 29.3237 -95.0824 288° West 212 244 2,800  Level FlightAware ADS-B
Fri 05:54:57 PM 29.3309 -95.1055 290° West 206 237 2,800  Level FlightAware ADS-B
Fri 05:55:12 PM 29.3360 -95.1211 291° West 210 242 2,800  Level FlightAware ADS-B
Fri 05:55:21 PM 29.3390 -95.1299 291° West 213 245 2,800  Level FlightAware ADS-B
Fri 05:55:24 PM 29.3404 -95.1331 297° West 213 245 2,800  Level FlightAware ADS-B
Fri 05:55:28 PM 29.3424 -95.1367 303° West 211 243 2,800  Level FlightAware ADS-B
Fri 05:55:32 PM 29.3452 -95.1403 312° West 206 237 2,800  Level FlightAware ADS-B
Fri 05:55:42 PM 29.3519 -95.1471 319° Northwest 206 237 2,800  Level FlightAware ADS-B
Fri 05:55:49 PM 29.3572 -95.1517 323° Northwest 204 235 2,800  Level FlightAware ADS-B
Fri 05:55:52 PM 29.3598 -95.1537 326° Northwest 201 231 2,800  Level FlightAware ADS-B
Fri 05:55:56 PM 29.3631 -95.1555 335° Northwest 197 227 2,800  Level FlightAware ADS-B
Fri 05:56:00 PM 29.3666 -95.1569 341° North 195 224 2,800  Level FlightAware ADS-B
Fri 05:56:05 PM 29.3706 -95.1579 348° North 193 222 2,800 -667 Level FlightAware ADS-B
Fri 05:56:09 PM 29.3743 -95.1586 351° North 191 220 2,700 -600 Descending FlightAware ADS-B
Fri 05:56:15 PM 29.3795 -95.1591 355° North 189 217 2,700 -500 Level FlightAware ADS-B
Fri 05:56:21 PM 29.3845 -95.1592 359° North 188 216 2,600 -1,000 Descending FlightAware ADS-B
Fri 05:56:27 PM 29.3902 -95.1592 360° North 187 215 2,500 -800 Descending FlightAware ADS-B
Fri 05:56:36 PM 29.3978 -95.1594 359° North 184 212 2,400 -727 Descending FlightAware ADS-B
Fri 05:57:00 PM 29.4171 -95.1598 359° North 184 212 2,100 -615 Descending FlightAware ADS-B
Fri 05:57:15 PM 29.4285 -95.1600 359° North 157 181 2,000 -200 Descending FlightAware ADS-B
Fri 05:57:30 PM 29.4397 -95.1603 359° North 164 189 2,000  Level FlightAware ADS-B
Fri 05:57:38 PM 29.4458 -95.1605 358° North 160 184 2,000  Level FlightAware ADS-B
Fri 05:57:46 PM 29.4516 -95.1607 358° North 160 184 2,000  Level FlightAware ADS-B
Fri 05:58:00 PM 29.4616 -95.1608 360° North 157 181 2,000  Level FlightAware ADS-B
Fri 05:58:11 PM 29.4695 -95.1610 359° North 155 178 2,000  Level FlightAware ADS-B
Fri 05:58:26 PM 29.4808 -95.1613 359° North 162 186 2,000 -231 Level FlightAware ADS-B
Fri 05:58:37 PM 29.4892 -95.1614 359° North 161 185 1,900 -632 Descending FlightAware ADS-B
Fri 05:58:45 PM 29.4951 -95.1616 358° North 158 182 1,800 -800 Descending FlightAware ADS-B
Fri 05:58:52 PM 29.4999 -95.1617 359° North 158 182 1,700 -800 Descending FlightAware ADS-B
Fri 05:59:00 PM 29.5058 -95.1618 359° North 156 180 1,600 -923 Descending FlightAware ADS-B
Fri 05:59:18 PM 29.5184 -95.1621 359° North 148 170 1,300 -882 Descending FlightAware ADS-B
Fri 05:59:34 PM 29.5291 -95.1624 359° North 140 161 1,100 -667 Descending FlightAware ADS-B
Fri 05:59:45 PM 29.5360 -95.1626 359° North 138 159 1,000 -643 Descending FlightAware ADS-B
Fri 06:00:02 PM 29.5468 -95.1628 359° North 136 157 800 -677 Descending FlightAware ADS-B
Fri 06:00:47 PM 29.5720 -95.1630 360° North 126 145 300 -700 Descending FlightAware ADS-B
Fri 06:01:02 PM 29.5820 -95.1640 355° North 134 154 100 -133 Descending FlightAware ADS-B
Fri 06:01:32 PM 29.6000 -95.1640 360° North 134 154 200 1,200 Climbing FlightAware ADS-B
Fri 06:02:12 PM 29.6231 -95.1454 35° Northeast 205 236 1,500 1,867 Climbing FlightAware ADS-B
Fri 06:02:17 PM 29.6257 -95.1405 59° Northeast 207 238 1,600 1,333 Climbing FlightAware ADS-B
Fri 06:02:21 PM 29.6282 -95.1375 46° Northeast 209 241 1,700 750 Climbing FlightAware ADS-B
Fri 06:02:25 PM 29.6316 -95.1343 39° Northeast 208 239 1,700  Level FlightAware ADS-B
Fri 06:02:29 PM 29.6347 -95.1320 33° Northeast 209 241 1,700 750 Level FlightAware ADS-B
Fri 06:02:33 PM 29.6380 -95.1298 30° Northeast 209 241 1,800 316 Climbing FlightAware ADS-B
Fri 06:02:48 PM 29.6512 -95.1221 27° Northeast 220 253 1,800 621 Level FlightAware ADS-B
Fri 06:03:02 PM 29.6641 -95.1149 26° Northeast 223 257 2,100 1,556 Climbing FlightAware ADS-B
Fri 06:03:15 PM 29.6761 -95.1081 26° Northeast 216 249 2,500 1,565 Climbing FlightAware ADS-B
Fri 06:03:25 PM 29.6849 -95.1031 26° Northeast 212 244 2,700 750 Climbing FlightAware ADS-B
Fri 06:03:39 PM 29.6970 -95.0961 27° Northeast 213 245 2,800 250 Climbing FlightAware ADS-B
Fri 06:03:49 PM 29.7062 -95.0907 27° Northeast 230 265 2,800  Level FlightAware ADS-B
Fri 06:04:04 PM 29.7209 -95.0822 27° Northeast 249 287 2,800  Level FlightAware ADS-B
Fri 06:04:18 PM 29.7356 -95.0738 26° Northeast 252 290 2,800  Level FlightAware ADS-B
Fri 06:04:32 PM 29.7502 -95.0655 26° Northeast 243 280 2,800  Level FlightAware ADS-B
Fri 06:04:48 PM 29.7656 -95.0566 27° Northeast 248 285 2,800  Level FlightAware ADS-B
Fri 06:04:55 PM 29.7730 -95.0522 27° Northeast 251 289 2,800  Level FlightAware ADS-B
Fri 06:04:59 PM 29.7770 -95.0494 31° Northeast 252 290 2,800  Level FlightAware ADS-B
Fri 06:05:02 PM 29.7802 -95.0467 36° Northeast 253 291 2,800  Level FlightAware ADS-B
Fri 06:05:07 PM 29.7842 -95.0426 42° Northeast 252 290 2,800  Level FlightAware ADS-B
Fri 06:05:14 PM 29.7905 -95.0354 45° Northeast 252 290 2,800  Level FlightAware ADS-B
Fri 06:05:29 PM 29.8027 -95.0205 47° Northeast 254 292 2,800  Level FlightAware ADS-B
Fri 06:05:44 PM 29.8144 -95.0058 47° Northeast 253 291 2,800  Level FlightAware ADS-B
Fri 06:05:58 PM 29.8255 -94.9921 47° Northeast 255 293 2,800  Level FlightAware ADS-B
Fri 06:06:03 PM 29.8299 -94.9872 44° Northeast 254 292 2,800  Level FlightAware ADS-B
Fri 06:06:07 PM 29.8332 -94.9843 37° Northeast 252 290 2,800  Level FlightAware ADS-B
Fri 06:06:10 PM 29.8366 -94.9819 31° Northeast 249 287 2,800  Level FlightAware ADS-B
Fri 06:06:14 PM 29.8405 -94.9798 25° Northeast 247 284 2,800  Level FlightAware ADS-B
Fri 06:06:17 PM 29.8439 -94.9785 18° North 242 278 2,800  Level FlightAware ADS-B
Fri 06:06:23 PM 29.8498 -94.9771 12° North 235 270 2,800  Level FlightAware ADS-B
Fri 06:06:34 PM 29.8616 -94.9754 North 218 251 2,800  Level FlightAware ADS-B
Fri 06:06:50 PM 29.8764 -94.9740 North 199 229 2,800  Level FlightAware ADS-B
Fri 06:07:09 PM 29.8929 -94.9723 North 186 214 2,800  Level FlightAware ADS-B
Fri 06:07:31 PM 29.9120 -94.9711 North 182 209 2,800  Level FlightAware ADS-B
Fri 06:07:36 PM 29.9158 -94.9718 351° North 181 208 2,800  Level FlightAware ADS-B
Fri 06:07:44 PM 29.9226 -94.9744 342° North 182 209 2,800  Level FlightAware ADS-B
Fri 06:07:46 PM 29.9239 -94.9753 329° Northwest 182 209 2,800  Level FlightAware ADS-B
Fri 06:07:48 PM 29.9253 -94.9764 326° Northwest 182 209 2,800  Level FlightAware ADS-B
Fri 06:07:51 PM 29.9272 -94.9784 318° Northwest 183 211 2,800  Level FlightAware ADS-B
Fri 06:07:54 PM 29.9289 -94.9806 312° West 189 217 2,800  Level FlightAware ADS-B
Fri 06:07:58 PM 29.9309 -94.9839 305° West 197 227 2,800  Level FlightAware ADS-B
Fri 06:08:00 PM 29.9317 -94.9854 302° West 198 228 2,800  Level FlightAware ADS-B
Fri 06:08:07 PM 29.9351 -94.9918 302° West 203 234 2,800  Level FlightAware ADS-B
Fri 06:08:16 PM 29.9394 -95.0004 300° West 206 237 2,800  Level FlightAware ADS-B
Fri 06:08:24 PM 29.9434 -95.0085 300° West 203 234 2,800  Level FlightAware ADS-B
Fri 06:08:39 PM 29.9506 -95.0226 301° West 206 237 2,800  Level FlightAware ADS-B
Fri 06:08:42 PM 29.9521 -95.0254 302° West 205 236 2,800  Level FlightAware ADS-B
Fri 06:08:46 PM 29.9537 -95.0287 299° West 208 239 2,800  Level FlightAware ADS-B
Fri 06:09:00 PM 29.9609 -95.0429 300° West 208 239 2,800  Level FlightAware ADS-B
Fri 06:09:01 PM 29.9613 -95.0437 300° West 206 237 2,800  Level FlightAware ADS-B
Fri 06:09:10 PM 29.9654 -95.0518 300° West 203 234 2,800  Level FlightAware ADS-B
Fri 06:09:17 PM 29.9687 -95.0581 301° West 208 239 2,800  Level FlightAware ADS-B
Fri 06:09:21 PM 29.9708 -95.0621 301° West 209 241 2,800  Level FlightAware ADS-B
Fri 06:09:29 PM 29.9750 -95.0700 302° West 208 239 2,800  Level FlightAware ADS-B
Fri 06:09:35 PM 29.9780 -95.0757 301° West 208 239 2,800  Level FlightAware ADS-B
Fri 06:09:44 PM 29.9826 -95.0845 301° West 210 242 2,800  Level FlightAware ADS-B
Fri 06:09:51 PM 29.9859 -95.0908 301° West 210 242 2,800  Level FlightAware ADS-B
Fri 06:09:56 PM 29.9883 -95.0956 300° West 206 237 2,800  Level FlightAware ADS-B
Fri 06:10:02 PM 29.9910 -95.1015 298° West 200 230 2,800  Level FlightAware ADS-B
Fri 06:10:07 PM 29.9923 -95.1056 290° West 197 227 2,800  Level FlightAware ADS-B
Fri 06:10:12 PM 29.9933 -95.1111 282° West 192 221 2,800  Level FlightAware ADS-B
Fri 06:10:15 PM 29.9935 -95.1144 274° West 192 221 2,800  Level FlightAware ADS-B
Fri 06:10:17 PM 29.9937 -95.1158 279° West 191 220 2,800  Level FlightAware ADS-B
Fri 06:10:20 PM 29.9937 -95.1188 270° West 191 220 2,800  Level FlightAware ADS-B
Fri 06:10:23 PM 29.9937 -95.1219 270° West 191 220 2,800  Level FlightAware ADS-B
Fri 06:10:27 PM 29.9936 -95.1270 269° West 189 217 2,800  Level FlightAware ADS-B
Fri 06:10:33 PM 29.9934 -95.1326 268° West 190 219 2,800  Level FlightAware ADS-B
Fri 06:10:35 PM 29.9933 -95.1342 266° West 190 219 2,800  Level FlightAware ADS-B
Fri 06:10:41 PM 29.9934 -95.1411 271° West 188 216 2,800  Level FlightAware ADS-B
Fri 06:10:48 PM 29.9935 -95.1475 271° West 190 219 2,800  Level FlightAware ADS-B
Fri 06:10:54 PM 29.9935 -95.1534 270° West 190 219 2,800 -429 Level FlightAware ADS-B
Fri 06:11:02 PM 29.9935 -95.1616 270° West 190 219 2,700 -1,000 Descending FlightAware ADS-B
Fri 06:11:06 PM 29.9934 -95.1661 269° West 190 219 2,600 -1,091 Descending FlightAware ADS-B
Fri 06:11:24 PM 29.9935 -95.1842 270° West 190 219 2,300 -857 Descending FlightAware ADS-B
Fri 06:11:48 PM 29.9935 -95.2067 270° West 174 200 2,000 -720 Descending FlightAware ADS-B
Fri 06:11:49 PM 29.9935 -95.2071 270° West 178 205 2,000  Level FlightAware ADS-B

Login

Don't have an account? Register now (free) for customized features, flight alerts, and more!